Time;durP1;ratioP1;P1;durP2;ratioP2;P2;SDS_P1;SDS_P2;PMS_P1;PMS_P2;Temp;Humidity;BMP_temperature;BMP_pressure;BME280_temperature;BME280_humidity;BME280_pressure;Samples;Min_cycle;Max_cycle;Signal;HPM_P1;HPM_P2
2023/07/29 00:02:56;;;;;;;;;;;;;;;17.77;80.84277;100762.9;;;;-72
2023/07/29 00:07:56;;;;;;;;;;;;;;;17.72;81.12891;100759.8;;;;-72
2023/07/29 00:12:56;;;;;;;;;;;;;;;17.7;81.62012;100748.8;;;;-72
2023/07/29 00:17:56;;;;;;;;;;;;;;;17.66;81.02734;100750;;;;-72
2023/07/29 00:22:57;;;;;;;;;;;;;;;17.66;81.4209;100743;;;;-72
2023/07/29 00:27:12;;;;;;;0.2;0.1;;;;;;;;;;;;;-72
2023/07/29 00:27:56;;;;;;;;;;;;;;;17.67;;100737.7;;;;-73
2023/07/29 00:33:03;;;;;;;;;;;;;;;17.7;81.62988;100737.6;;;;-71
2023/07/29 00:37:56;;;;;;;;;;;;;;;17.68;81.87402;100731.1;;;;-73
2023/07/29 00:42:58;;;;;;;;;;;;;;;17.69;81.29102;100729;;;;-72
2023/07/29 00:47:56;;;;;;;;;;;;;;;17.68;81.77246;100730.6;;;;-71
2023/07/29 00:52:56;;;;;;;;;;;;;;;17.68;81.24414;100721.9;;;;-73
2023/07/29 00:57:17;;;;;;;0.2;0;;;;;;;;;;;;;-72
2023/07/29 00:57:56;;;;;;;;;;;;;;;17.68;81.58105;100717.7;;;;-71
2023/07/29 01:02:56;;;;;;;;;;;;;;;17.69;81.91992;100714.3;;;;-72
2023/07/29 01:08:01;;;;;;;;;;;;;;;17.7;82.06836;100711.5;;;;-71
2023/07/29 01:13:01;;;;;;;;;;;;;;;17.7;81.88965;100702.5;;;;-72
2023/07/29 01:17:58;;;;;;;;;;;;;;;17.71;82.35059;100696.3;;;;-73
2023/07/29 01:22:58;;;;;;;;;;;;;;;17.73;82.04102;100692.2;;;;-72
2023/07/29 01:27:17;;;;;;;0.2;0;;;;;;;;;;;;;-72
2023/07/29 01:27:56;;;;;;;;;;;;;;;17.72;81.94922;100693.4;;;;-70
2023/07/29 01:33:03;;;;;;;;;;;;;;;17.7;81.83203;100689.8;;;;-72
2023/07/29 01:37:58;;;;;;;;;;;;;;;17.71;82.00195;100694.7;;;;-73
2023/07/29 01:42:58;;;;;;;;;;;;;;;17.68;82.30078;100696;;;;-72
2023/07/29 01:47:56;;;;;;;;;;;;;;;17.69;82.70703;100695.4;;;;-72
2023/07/29 01:52:57;;;;;;;;;;;;;;;17.68;82.2666;100696.7;;;;-71
2023/07/29 01:57:20;;;;;;;0.2;0.1;;;;;;;;;;;;;-72
2023/07/29 01:57:56;;;;;;;;;;;;;;;17.68;82.28906;100694.2;;;;-73
2023/07/29 02:02:58;;;;;;;;;;;;;;;17.67;82.24316;100696.3;;;;-73
2023/07/29 02:07:56;;;;;;;;;;;;;;;17.63;82.01172;100691.1;;;;-73
2023/07/29 02:12:57;;;;;;;;;;;;;;;17.61;82.38867;100681.1;;;;-72
2023/07/29 02:17:56;;;;;;;;;;;;;;;17.57;82.03125;100677.2;;;;-71
2023/07/29 02:22:56;;;;;;;;;;;;;;;17.51;82.06836;100666;;;;-72
2023/07/29 02:27:25;;;;;;;0.2;0;;;;;;;;;;;;;-72
2023/07/29 02:27:56;;;;;;;;;;;;;;;17.45;81.92188;100666.7;;;;-72
2023/07/29 02:32:56;;;;;;;;;;;;;;;17.37;82.20996;100669.3;;;;-72
2023/07/29 02:37:56;;;;;;;;;;;;;;;17.31;82.12109;100680.7;;;;-72
2023/07/29 02:42:56;;;;;;;;;;;;;;;17.27;81.85449;100683.1;;;;-71
2023/07/29 02:47:56;;;;;;;;;;;;;;;17.2;81.93066;100663.8;;;;-71
2023/07/29 02:52:56;;;;;;;;;;;;;;;17.18;81.91602;100669.7;;;;-72
2023/07/29 02:57:25;;;;;;;0.2;0.1;;;;;;;;;;;;;-70
2023/07/29 02:57:56;;;;;;;;;;;;;;;17.13;82.59082;100671.7;;;;-72
2023/07/29 03:02:56;;;;;;;;;;;;;;;17.08;82.20215;100660.3;;;;-71
2023/07/29 03:07:56;;;;;;;;;;;;;;;17.05;82.59961;100652.5;;;;-72
2023/07/29 03:12:57;;;;;;;;;;;;;;;17;82.42285;100637.8;;;;-72
2023/07/29 03:17:56;;;;;;;;;;;;;;;17.01;82.15332;100641.4;;;;-72
2023/07/29 03:22:56;;;;;;;;;;;;;;;16.97;82.70801;100639.4;;;;-71
2023/07/29 03:27:28;;;;;;;0.2;0.1;;;;;;;;;;;;;-72
2023/07/29 03:27:56;;;;;;;;;;;;;;;16.95;82.19824;100639.3;;;;-70
2023/07/29 03:32:57;;;;;;;;;;;;;;;16.92;82.1709;100630;;;;-68
2023/07/29 03:37:56;;;;;;;;;;;;;;;16.91;81.98926;100637.4;;;;-72
2023/07/29 03:42:56;;;;;;;;;;;;;;;16.87;82.73633;100636.7;;;;-71
2023/07/29 03:47:56;;;;;;;;;;;;;;;16.87;82.38672;100630;;;;-71
2023/07/29 03:52:56;;;;;;;;;;;;;;;16.86;82.44141;100633.4;;;;-68
2023/07/29 03:57:30;;;;;;;0.2;0;;;;;;;;;;;;;-67
2023/07/29 03:57:56;;;;;;;;;;;;;;;16.85;82.84277;100639;;;;-67
2023/07/29 04:02:56;;;;;;;;;;;;;;;16.83;83.26465;100642.2;;;;-68
2023/07/29 04:07:56;;;;;;;;;;;;;;;16.85;83.04492;100638.9;;;;-69
2023/07/29 04:12:56;;;;;;;;;;;;;;;16.84;83.24512;100650.9;;;;-67
2023/07/29 04:17:56;;;;;;;;;;;;;;;16.84;83.35742;100637.8;;;;-69
2023/07/29 04:22:56;;;;;;;;;;;;;;;16.88;84.5752;100642.1;;;;-68
2023/07/29 04:27:32;;;;;;;0.2;0;;;;;;;;;;;;;-68
2023/07/29 04:27:59;;;;;;;;;;;;;;;16.89;84.50977;100657.8;;;;-67
2023/07/29 04:32:56;;;;;;;;;;;;;;;16.92;85.04395;100654.6;;;;-69
2023/07/29 04:37:56;;;;;;;;;;;;;;;16.96;85.59961;100649.6;;;;-68
2023/07/29 04:42:56;;;;;;;;;;;;;;;16.99;85.42578;100655.2;;;;-69
2023/07/29 04:47:56;;;;;;;;;;;;;;;17.02;85.09668;100653.7;;;;-68
2023/07/29 04:52:56;;;;;;;;;;;;;;;17.03;85.13184;100648.3;;;;-69
2023/07/29 04:57:35;;;;;;;0.2;0;;;;;;;;;;;;;-67
2023/07/29 04:57:56;;;;;;;;;;;;;;;17.06;84.63184;100649.4;;;;-70
2023/07/29 05:02:56;;;;;;;;;;;;;;;17.09;84.53613;100648.9;;;;-69
2023/07/29 05:07:56;;;;;;;;;;;;;;;17.16;84.25879;100653.1;;;;-69
2023/07/29 05:12:56;;;;;;;;;;;;;;;17.23;84.20313;100658.4;;;;-69
2023/07/29 05:17:56;;;;;;;;;;;;;;;17.3;85.08105;100658.2;;;;-69
2023/07/29 05:22:56;;;;;;;;;;;;;;;17.35;84.66504;100657;;;;-69
2023/07/29 05:27:37;;;;;;;0.2;0;;;;;;;;;;;;;-69
2023/07/29 05:27:57;;;;;;;;;;;;;;;17.41;84.26074;100663.3;;;;-68
2023/07/29 05:32:56;;;;;;;;;;;;;;;17.47;84.57422;100662.5;;;;-69
2023/07/29 05:37:56;;;;;;;;;;;;;;;17.53;85.20508;100663.4;;;;-71
2023/07/29 05:42:56;;;;;;;;;;;;;;;17.57;84.73145;100667.4;;;;-73
2023/07/29 05:47:56;;;;;;;;;;;;;;;17.61;84.64844;100664.8;;;;-72
2023/07/29 05:53:00;;;;;;;;;;;;;;;17.66;84.88184;100657.2;;;;-73
2023/07/29 05:57:40;;;;;;;0.2;0;;;;;;;;;;;;;-73
2023/07/29 05:57:56;;;;;;;;;;;;;;;17.72;85.19531;100653.6;;;;-72
2023/07/29 06:02:56;;;;;;;;;;;;;;;17.84;84.71191;100650;;;;-72
2023/07/29 06:07:58;;;;;;;;;;;;;;;18.12;86.6543;100655.6;;;;-70
2023/07/29 06:12:56;;;;;;;;;;;;;;;18.31;85.12793;100655.5;;;;-72
2023/07/29 06:17:56;;;;;;;;;;;;;;;18.45;84.96289;100653.9;;;;-72
2023/07/29 06:22:55;;;;;;;;;;;;;;;18.53;85.44043;100656.5;;;;-72
2023/07/29 06:27:42;;;;;;;0.2;0.1;;;;;;;;;;;;;-69
2023/07/29 06:27:56;;;;;;;;;;;;;;;18.54;85.5332;100669.3;;;;-69
2023/07/29 06:32:56;;;;;;;;;;;;;;;18.57;85.63867;100670.5;;;;-69
2023/07/29 06:37:56;;;;;;;;;;;;;;;18.59;86.22852;100668.9;;;;-68
2023/07/29 06:42:56;;;;;;;;;;;;;;;18.6;86.19629;100675.6;;;;-69
2023/07/29 06:47:56;;;;;;;;;;;;;;;18.61;86.19824;100676.6;;;;-67
2023/07/29 06:52:56;;;;;;;;;;;;;;;18.64;86.41797;100677.2;;;;-67
2023/07/29 06:57:45;;;;;;;0.2;0.1;;;;;;;;;;;;;-69
2023/07/29 06:57:56;;;;;;;;;;;;;;;18.68;86.58398;100675.4;;;;-71
2023/07/29 07:02:58;;;;;;;;;;;;;;;18.93;86.46289;100683;;;;-69
2023/07/29 07:07:56;;;;;;;;;;;;;;;19.33;86.06738;100679;;;;-69
2023/07/29 07:12:56;;;;;;;;;;;;;;;19.43;84.51953;100681;;;;-68
2023/07/29 07:17:56;;;;;;;;;;;;;;;19.44;85.10742;100674;;;;-68
2023/07/29 07:22:56;;;;;;;;;;;;;;;19.56;85.14063;100671.7;;;;-69
2023/07/29 07:27:48;;;;;;;0.3;0.1;;;;;;;;;;;;;-68
2023/07/29 07:27:58;;;;;;;;;;;;;;;19.67;84.45313;100669.4;;;;-71
2023/07/29 07:32:56;;;;;;;;;;;;;;;19.71;84.32422;100677.8;;;;-68
2023/07/29 07:37:56;;;;;;;;;;;;;;;19.68;84.25098;100678.7;;;;-68
2023/07/29 07:42:56;;;;;;;;;;;;;;;19.7;84.93164;100678.8;;;;-69
2023/07/29 07:47:56;;;;;;;;;;;;;;;19.83;84.36914;100683;;;;-68
2023/07/29 07:52:56;;;;;;;;;;;;;;;20;83.91602;100679.3;;;;-69
2023/07/29 07:57:51;;;;;;;0.2;0;;;;;;;;;;;;;-69
2023/07/29 07:58:01;;;;;;;;;;;;;;;20.15;83.45801;100683.5;;;;-69
2023/07/29 08:02:58;;;;;;;;;;;;;;;20.2;83.37793;100686.9;;;;-69
2023/07/29 08:07:56;;;;;;;;;;;;;;;20.33;83.13965;100687;;;;-68
2023/07/29 08:12:56;;;;;;;;;;;;;;;20.31;82.74219;100699;;;;-68
2023/07/29 08:17:56;;;;;;;;;;;;;;;20.17;83.21387;100716.7;;;;-69
2023/07/29 08:22:56;;;;;;;;;;;;;;;19.94;84.34473;100708.6;;;;-70
2023/07/29 08:27:55;;;;;;;0.2;0;;;;;;;;;;;;;-69
2023/07/29 08:28:05;;;;;;;;;;;;;;;19.85;84.71289;100707.7;;;;-70
2023/07/29 08:32:56;;;;;;;;;;;;;;;19.95;85.65723;100705.1;;;;-68
2023/07/29 08:37:56;;;;;;;;;;;;;;;20.12;85.76953;100713.5;;;;-68
2023/07/29 08:42:57;;;;;;;;;;;;;;;20.18;84.89746;100713.2;;;;-68
2023/07/29 08:47:57;;;;;;;;;;;;;;;20.11;84.7832;100718;;;;-68
2023/07/29 08:52:56;;;;;;;;;;;;;;;20.16;84.29492;100711.3;;;;-69
2023/07/29 08:57:56;;;;;;;;;;;;;;;20.3;84.43555;100715;;;;-69
2023/07/29 08:58:06;;;;;;;0.2;0.1;;;;;;;;;;;;;-69
2023/07/29 09:03:06;;;;;;;;;;;;;;;20.39;83.40137;100720.9;;;;-70
2023/07/29 09:07:58;;;;;;;;;;;;;;;20.43;82.8418;100726.3;;;;-69
2023/07/29 09:12:56;;;;;;;;;;;;;;;20.36;82.83008;100732.9;;;;-69
2023/07/29 09:17:56;;;;;;;;;;;;;;;20.31;82.69727;100734.7;;;;-69
2023/07/29 09:22:56;;;;;;;;;;;;;;;20.31;82.41406;100741.5;;;;-68
2023/07/29 09:27:56;;;;;;;;;;;;;;;20.22;82.16016;100735.9;;;;-70
2023/07/29 09:28:11;;;;;;;0.2;0.1;;;;;;;;;;;;;-70
2023/07/29 09:32:56;;;;;;;;;;;;;;;20.19;82.29102;100747.6;;;;-68
2023/07/29 09:37:56;;;;;;;;;;;;;;;20.22;82.23926;100745;;;;-68
2023/07/29 09:42:57;;;;;;;;;;;;;;;20.19;82.2666;100741.2;;;;-68
2023/07/29 09:47:56;;;;;;;;;;;;;;;20.19;82.95801;100734.8;;;;-68
2023/07/29 09:52:58;;;;;;;;;;;;;;;20.3;83.2832;100733.8;;;;-68
2023/07/29 09:57:56;;;;;;;;;;;;;;;20.49;82.75293;100734.5;;;;-69
2023/07/29 09:58:08;;;;;;;0.2;0;;;;;;;;;;;;;-69
2023/07/29 10:02:56;;;;;;;;;;;;;;;20.69;81.93945;100721.9;;;;-68
2023/07/29 10:07:56;;;;;;;;;;;;;;;20.9;81.15137;100722.1;;;;-69
2023/07/29 10:12:56;;;;;;;;;;;;;;;21.1;79.68164;100726.2;;;;-68
2023/07/29 10:17:56;;;;;;;;;;;;;;;21.12;78.82324;100731.2;;;;-70
2023/07/29 10:23:00;;;;;;;;;;;;;;;21.1;77.87891;100740.6;;;;-70
2023/07/29 10:27:57;;;;;;;;;;;;;;;21.02;78.01172;100743.9;;;;-69
2023/07/29 10:28:08;;;;;;;0.2;0;;;;;;;;;;;;;-71
2023/07/29 10:32:56;;;;;;;;;;;;;;;20.93;78.25684;100748.2;;;;-69
2023/07/29 10:37:56;;;;;;;;;;;;;;;20.85;78.67285;100749.9;;;;-69
2023/07/29 10:43:14;;;;;;;;;;;;;;;20.8;79.0957;100750.5;;;;-70
2023/07/29 10:47:56;;;;;;;;;;;;;;;20.76;79.55273;100753.4;;;;-69
2023/07/29 10:52:56;;;;;;;;;;;;;;;20.78;79.71387;100744.2;;;;-69
2023/07/29 10:57:56;;;;;;;;;;;;;;;20.77;79.98633;100750.6;;;;-70
2023/07/29 10:58:18;;;;;;;0.2;0;;;;;;;;;;;;;-68
2023/07/29 11:03:06;;;;;;;;;;;;;;;20.75;79.83594;100757.7;;;;-69
2023/07/29 11:07:56;;;;;;;;;;;;;;;20.81;80.16211;100765.3;;;;-70
2023/07/29 11:12:57;;;;;;;;;;;;;;;21.07;79.67676;100749.7;;;;-70
2023/07/29 11:17:56;;;;;;;;;;;;;;;21.4;78.38379;100753.6;;;;-69
2023/07/29 11:22:56;;;;;;;;;;;;;;;21.7;76.61816;100750.2;;;;-70
2023/07/29 11:27:56;;;;;;;;;;;;;;;21.91;75.74805;100741.5;;;;-70
2023/07/29 11:28:14;;;;;;;0.3;0.1;;;;;;;;;;;;;-70
2023/07/29 11:32:57;;;;;;;;;;;;;;;22.11;73.98242;100744.2;;;;-71
2023/07/29 11:37:56;;;;;;;;;;;;;;;22.28;73.07715;100752;;;;-68
2023/07/29 11:42:56;;;;;;;;;;;;;;;22.34;72.49414;100745.8;;;;-68
2023/07/29 11:47:56;;;;;;;;;;;;;;;22.46;71.8877;100755.4;;;;-72
2023/07/29 11:52:56;;;;;;;;;;;;;;;22.45;71.69043;100761.7;;;;-70
2023/07/29 11:57:56;;;;;;;;;;;;;;;22.46;72.20703;100760.7;;;;-68
2023/07/29 11:58:19;;;;;;;0.2;0;;;;;;;;;;;;;-69
2023/07/29 12:02:56;;;;;;;;;;;;;;;22.46;71.72754;100757;;;;-69
2023/07/29 12:07:56;;;;;;;;;;;;;;;22.51;71.25488;100759;;;;-69
2023/07/29 12:12:55;;;;;;;;;;;;;;;22.52;71.57715;100761.5;;;;-70
2023/07/29 12:17:56;;;;;;;;;;;;;;;22.55;72.19727;100753.8;;;;-68
2023/07/29 12:23:01;;;;;;;;;;;;;;;22.83;71.62598;100743.2;;;;-70
2023/07/29 12:27:56;;;;;;;;;;;;;;;23.34;73.06641;100740.7;;;;-69
2023/07/29 12:28:21;;;;;;;0.2;0;;;;;;;;;;;;;-68
2023/07/29 12:32:56;;;;;;;;;;;;;;;23.56;70.00488;100738.2;;;;-69
2023/07/29 12:38:05;;;;;;;;;;;;;;;23.98;71.70801;100728;;;;-71
2023/07/29 12:42:56;;;;;;;;;;;;;;;24.37;73.13086;100731.6;;;;-68
2023/07/29 12:47:56;;;;;;;;;;;;;;;24.47;70.00977;100736.1;;;;-69
2023/07/29 12:52:55;;;;;;;;;;;;;;;24.73;72.91309;100735;;;;-68
2023/07/29 12:57:58;;;;;;;;;;;;;;;24.86;69.7832;100741.8;;;;-67
2023/07/29 12:58:26;;;;;;;0.2;0;;;;;;;;;;;;;-68
2023/07/29 13:02:56;;;;;;;;;;;;;;;24.92;67.97949;100741.8;;;;-71
2023/07/29 13:07:55;;;;;;;;;;;;;;;24.71;66.9043;100740.3;;;;-68
2023/07/29 13:12:56;;;;;;;;;;;;;;;24.86;69.35938;100744;;;;-70
2023/07/29 13:17:56;;;;;;;;;;;;;;;25.24;69.9668;100749;;;;-69
2023/07/29 13:22:56;;;;;;;;;;;;;;;25.51;71.12305;100741.6;;;;-69
2023/07/29 13:27:56;;;;;;;;;;;;;;;25.49;71.59277;100751.6;;;;-71
2023/07/29 13:28:30;;;;;;;0.2;0;;;;;;;;;;;;;-70
2023/07/29 13:32:56;;;;;;;;;;;;;;;25.38;68.12988;100760.1;;;;-70
2023/07/29 13:37:58;;;;;;;;;;;;;;;25.18;66.84766;100755.5;;;;-71
2023/07/29 13:42:56;;;;;;;;;;;;;;;25.15;64.97168;100748.7;;;;-72
2023/07/29 13:47:56;;;;;;;;;;;;;;;25.49;70.14355;100751.7;;;;-72
2023/07/29 13:52:56;;;;;;;;;;;;;;;25.65;67.71094;100758.9;;;;-70
2023/07/29 13:57:56;;;;;;;;;;;;;;;25.65;68.92969;100760.2;;;;-72
2023/07/29 13:58:34;;;;;;;0.2;0;;;;;;;;;;;;;-70
2023/07/29 14:02:55;;;;;;;;;;;;;;;25.48;65.78906;100767.2;;;;-71
2023/07/29 14:07:56;;;;;;;;;;;;;;;25.42;65.34277;100762.3;;;;-71
2023/07/29 14:12:56;;;;;;;;;;;;;;;25.37;67.44922;100747.4;;;;-71
2023/07/29 14:17:55;;;;;;;;;;;;;;;25.33;64.94043;100754.2;;;;-70
2023/07/29 14:22:56;;;;;;;;;;;;;;;25.23;64.86816;100759.3;;;;-70
2023/07/29 14:27:56;;;;;;;;;;;;;;;25.23;65.66016;100758.2;;;;-70
2023/07/29 14:28:40;;;;;;;0.2;0;;;;;;;;;;;;;-70
2023/07/29 14:32:56;;;;;;;;;;;;;;;25.46;67.42871;100754.9;;;;-70
2023/07/29 14:37:58;;;;;;;;;;;;;;;25.5;65.76953;100758.6;;;;-71
2023/07/29 14:42:56;;;;;;;;;;;;;;;25.37;65.03711;100755.2;;;;-70
2023/07/29 14:47:56;;;;;;;;;;;;;;;25.47;66.13281;100756.6;;;;-71
2023/07/29 14:52:56;;;;;;;;;;;;;;;25.71;66.35156;100750.9;;;;-71
2023/07/29 14:57:55;;;;;;;;;;;;;;;25.78;64.15234;100751.6;;;;-72
2023/07/29 14:58:43;;;;;;;0.2;0;;;;;;;;;;;;;-70
2023/07/29 15:02:57;;;;;;;;;;;;;;;25.79;66.4209;100753.4;;;;-70
2023/07/29 15:07:56;;;;;;;;;;;;;;;25.79;65.00684;100749.6;;;;-71
2023/07/29 15:12:58;;;;;;;;;;;;;;;25.64;63.16699;100752.1;;;;-73
2023/07/29 15:17:56;;;;;;;;;;;;;;;25.51;65.37891;100751.4;;;;-71
2023/07/29 15:22:56;;;;;;;;;;;;;;;25.38;63.62402;100753.1;;;;-71
2023/07/29 15:27:58;;;;;;;;;;;;;;;25.27;62.75781;100752.7;;;;-73
2023/07/29 15:28:48;;;;;;;0.2;0;;;;;;;;;;;;;-70
2023/07/29 15:32:55;;;;;;;;;;;;;;;25.2;64.00098;100746;;;;-71
2023/07/29 15:37:56;;;;;;;;;;;;;;;25.34;64.16992;100751.9;;;;-70
2023/07/29 15:42:56;;;;;;;;;;;;;;;25.42;63.6416;100750.1;;;;-71
2023/07/29 15:47:56;;;;;;;;;;;;;;;25.45;62.4502;100752.2;;;;-71
2023/07/29 15:52:56;;;;;;;;;;;;;;;25.59;62.11035;100750.3;;;;-71
2023/07/29 15:57:58;;;;;;;;;;;;;;;25.6;62.19336;100748.3;;;;-70
2023/07/29 15:58:52;;;;;;;0.2;0.1;;;;;;;;;;;;;-71
2023/07/29 16:02:56;;;;;;;;;;;;;;;25.67;62.81348;100744.6;;;;-71
2023/07/29 16:07:57;;;;;;;;;;;;;;;25.74;61.41797;100745;;;;-71
2023/07/29 16:12:56;;;;;;;;;;;;;;;25.39;61.19824;100746;;;;-71
2023/07/29 16:17:58;;;;;;;;;;;;;;;25.2;61.32227;100739.2;;;;-69
2023/07/29 16:22:57;;;;;;;;;;;;;;;25.14;61.77441;100743.3;;;;-72
2023/07/29 16:27:56;;;;;;;;;;;;;;;25.08;61.74316;100743.4;;;;-71
2023/07/29 16:28:56;;;;;;;0.2;0;;;;;;;;;;;;;-70
2023/07/29 16:32:55;;;;;;;;;;;;;;;25.13;61.55371;100745.7;;;;-71
2023/07/29 16:37:57;;;;;;;;;;;;;;;24.95;61.31152;100749.8;;;;-72
2023/07/29 16:42:56;;;;;;;;;;;;;;;24.81;61.52148;100746.8;;;;-69
2023/07/29 16:47:55;;;;;;;;;;;;;;;24.63;60.45215;100745.5;;;;-70
2023/07/29 16:52:58;;;;;;;;;;;;;;;24.36;60.09375;100749.5;;;;-71
2023/07/29 16:57:56;;;;;;;;;;;;;;;24.28;60.72754;100752.4;;;;-71
2023/07/29 16:59:02;;;;;;;0.2;0;;;;;;;;;;;;;-71
2023/07/29 17:02:56;;;;;;;;;;;;;;;24.29;60.99121;100741.5;;;;-71
2023/07/29 17:07:56;;;;;;;;;;;;;;;24.21;60.85449;100754.2;;;;-70
2023/07/29 17:12:56;;;;;;;;;;;;;;;24.12;61.0498;100754.3;;;;-71
2023/07/29 17:17:57;;;;;;;;;;;;;;;24.01;60.58594;100751.5;;;;-71
2023/07/29 17:22:56;;;;;;;;;;;;;;;23.85;60.9668;100755.7;;;;-71
2023/07/29 17:27:56;;;;;;;;;;;;;;;23.77;61.12793;100752;;;;-70
2023/07/29 17:29:05;;;;;;;0.2;0;;;;;;;;;;;;;-70
2023/07/29 17:32:55;;;;;;;;;;;;;;;23.7;62.34473;100751.2;;;;-70
2023/07/29 17:37:55;;;;;;;;;;;;;;;23.58;61.20605;100759.1;;;;-70
2023/07/29 17:42:56;;;;;;;;;;;;;;;23.38;62.01465;100759.9;;;;-70
2023/07/29 17:47:55;;;;;;;;;;;;;;;23.27;62.52637;100757;;;;-70
2023/07/29 17:52:57;;;;;;;;;;;;;;;23.17;63.03809;100760.1;;;;-71
2023/07/29 17:57:58;;;;;;;;;;;;;;;23.09;62.51172;100763.9;;;;-71
2023/07/29 17:59:09;;;;;;;0.2;0.1;;;;;;;;;;;;;-70
2023/07/29 18:02:56;;;;;;;;;;;;;;;22.93;62.81055;100760;;;;-70
2023/07/29 18:07:55;;;;;;;;;;;;;;;22.78;63.52051;100762.7;;;;-70
2023/07/29 18:12:55;;;;;;;;;;;;;;;22.67;63.95117;100767.9;;;;-71
2023/07/29 18:17:58;;;;;;;;;;;;;;;22.59;64.00781;100771;;;;-70
2023/07/29 18:23:00;;;;;;;;;;;;;;;22.47;64.40234;100775.9;;;;-70
2023/07/29 18:27:56;;;;;;;;;;;;;;;22.33;64.56348;100777.5;;;;-71
2023/07/29 18:29:13;;;;;;;0.4;0.1;;;;;;;;;;;;;-71
2023/07/29 18:32:55;;;;;;;;;;;;;;;22.19;64.7168;100783.5;;;;-71
2023/07/29 18:37:57;;;;;;;;;;;;;;;22.02;64.70313;100777.2;;;;-69
2023/07/29 18:42:56;;;;;;;;;;;;;;;21.9;65.08398;100781.8;;;;-70
2023/07/29 18:47:55;;;;;;;;;;;;;;;21.8;65.07129;100789.3;;;;-70
2023/07/29 18:52:57;;;;;;;;;;;;;;;21.66;65.1084;100789.4;;;;-70
2023/07/29 18:57:55;;;;;;;;;;;;;;;21.53;65.19043;100788.7;;;;-69
2023/07/29 18:59:20;;;;;;;0.2;0.1;;;;;;;;;;;;;-71
2023/07/29 19:02:56;;;;;;;;;;;;;;;21.38;64.58887;100796.2;;;;-70
2023/07/29 19:07:55;;;;;;;;;;;;;;;21.23;65.24805;100793.9;;;;-70
2023/07/29 19:12:57;;;;;;;;;;;;;;;21.08;65.3877;100795;;;;-71
2023/07/29 19:17:56;;;;;;;;;;;;;;;20.92;65.73926;100797.2;;;;-70
2023/07/29 19:22:56;;;;;;;;;;;;;;;20.77;66.00195;100803.8;;;;-70
2023/07/29 19:27:55;;;;;;;;;;;;;;;20.63;66.26465;100807.7;;;;-72
2023/07/29 19:29:19;;;;;;;0.2;0;;;;;;;;;;;;;-71
2023/07/29 19:32:55;;;;;;;;;;;;;;;20.47;66.69629;100812.9;;;;-71
2023/07/29 19:37:56;;;;;;;;;;;;;;;20.33;66.26563;100810.7;;;;-72
2023/07/29 19:42:58;;;;;;;;;;;;;;;20.19;66.17578;100817.6;;;;-71
2023/07/29 19:47:56;;;;;;;;;;;;;;;20.1;66.5498;100819.9;;;;-71
2023/07/29 19:52:59;;;;;;;;;;;;;;;19.97;66.79199;100826.5;;;;-69
2023/07/29 19:57:56;;;;;;;;;;;;;;;19.87;67.49219;100830.5;;;;-69
2023/07/29 19:59:23;;;;;;;0.2;0.1;;;;;;;;;;;;;-69
2023/07/29 20:02:55;;;;;;;;;;;;;;;19.77;68.02148;100833.1;;;;-69
2023/07/29 20:07:55;;;;;;;;;;;;;;;19.69;68.37207;100829.9;;;;-68
2023/07/29 20:12:56;;;;;;;;;;;;;;;19.58;68.10547;100830.8;;;;-69
2023/07/29 20:17:56;;;;;;;;;;;;;;;19.48;68.45313;100835.7;;;;-69
2023/07/29 20:22:57;;;;;;;;;;;;;;;19.38;68.78906;100837;;;;-72
2023/07/29 20:27:56;;;;;;;;;;;;;;;19.29;69.16016;100839.7;;;;-74
2023/07/29 20:29:29;;;;;;;0.2;0;;;;;;;;;;;;;-73
2023/07/29 20:32:55;;;;;;;;;;;;;;;19.18;69.76563;100839.8;;;;-73
2023/07/29 20:37:55;;;;;;;;;;;;;;;19.08;70.02148;100842.2;;;;-73
2023/07/29 20:42:55;;;;;;;;;;;;;;;18.99;70.12012;100838.1;;;;-72
2023/07/29 20:47:57;;;;;;;;;;;;;;;18.94;70.58691;100838.2;;;;-72
2023/07/29 20:52:56;;;;;;;;;;;;;;;18.84;71.1377;100840.4;;;;-74
2023/07/29 20:57:55;;;;;;;;;;;;;;;18.77;70.7998;100836.7;;;;-72
2023/07/29 20:59:29;;;;;;;0.6;0.3;;;;;;;;;;;;;-71
2023/07/29 21:02:55;;;;;;;;;;;;;;;18.7;71.5332;100837.7;;;;-73
2023/07/29 21:07:56;;;;;;;;;;;;;;;18.64;71.91797;100846.1;;;;-71
2023/07/29 21:12:56;;;;;;;;;;;;;;;18.62;72.05176;100843.6;;;;-70
2023/07/29 21:17:56;;;;;;;;;;;;;;;18.54;72.59277;100844.7;;;;-69
2023/07/29 21:22:56;;;;;;;;;;;;;;;18.5;72.43945;100845.3;;;;-69
2023/07/29 21:27:56;;;;;;;;;;;;;;;18.41;72.77344;100839.4;;;;-68
2023/07/29 21:29:35;;;;;;;1.4;0.2;;;;;;;;;;;;;-69
2023/07/29 21:32:56;;;;;;;;;;;;;;;18.34;72.89648;100839.5;;;;-70
2023/07/29 21:37:58;;;;;;;;;;;;;;;18.29;73.49707;100845.4;;;;-70
2023/07/29 21:42:56;;;;;;;;;;;;;;;18.23;73.47754;100848.9;;;;-68
2023/07/29 21:47:56;;;;;;;;;;;;;;;18.15;74.0293;100846.9;;;;-69
2023/07/29 21:52:57;;;;;;;;;;;;;;;18.1;74.05371;100842.3;;;;-70
2023/07/29 21:57:55;;;;;;;;;;;;;;;18.05;74.02344;100840.2;;;;-70
2023/07/29 21:59:35;;;;;;;0.2;0;;;;;;;;;;;;;-70
2023/07/29 22:02:56;;;;;;;;;;;;;;;18;74.50098;100838.6;;;;-70
2023/07/29 22:07:55;;;;;;;;;;;;;;;17.96;74.51465;100840.5;;;;-68
2023/07/29 22:12:56;;;;;;;;;;;;;;;17.91;74.51758;100840;;;;-69
2023/07/29 22:17:55;;;;;;;;;;;;;;;17.84;74.87793;100836.6;;;;-69
2023/07/29 22:22:55;;;;;;;;;;;;;;;17.78;75.07129;100835.4;;;;-68
2023/07/29 22:27:55;;;;;;;;;;;;;;;17.72;75.34375;100839.3;;;;-70
2023/07/29 22:29:39;;;;;;;0.2;0.1;;;;;;;;;;;;;-69
2023/07/29 22:32:55;;;;;;;;;;;;;;;17.69;75.49707;100836.6;;;;-69
2023/07/29 22:37:58;;;;;;;;;;;;;;;17.64;75.69043;100838.2;;;;-69
2023/07/29 22:42:55;;;;;;;;;;;;;;;17.58;76.12988;100836.8;;;;-68
2023/07/29 22:47:55;;;;;;;;;;;;;;;17.55;76.0127;100835.7;;;;-69
2023/07/29 22:53:05;;;;;;;;;;;;;;;17.51;76.18457;100834.5;;;;-69
2023/07/29 22:57:55;;;;;;;;;;;;;;;17.45;76.3877;100836.9;;;;-70
2023/07/29 22:59:41;;;;;;;0.3;0.1;;;;;;;;;;;;;-69
2023/07/29 23:02:55;;;;;;;;;;;;;;;17.4;76.73047;100836.2;;;;-70
2023/07/29 23:07:56;;;;;;;;;;;;;;;17.37;76.4873;100843.3;;;;-69
2023/07/29 23:12:55;;;;;;;;;;;;;;;17.35;76.45117;100846.5;;;;-69
2023/07/29 23:17:55;;;;;;;;;;;;;;;17.33;76.3916;100843.2;;;;-69
2023/07/29 23:22:55;;;;;;;;;;;;;;;17.29;77.35059;100846.9;;;;-68
2023/07/29 23:27:58;;;;;;;;;;;;;;;17.25;77.1084;100851.2;;;;-69
2023/07/29 23:29:43;;;;;;;0.2;0;;;;;;;;;;;;;-69
2023/07/29 23:32:55;;;;;;;;;;;;;;;17.21;77.44922;100844.6;;;;-70
2023/07/29 23:37:55;;;;;;;;;;;;;;;17.19;77.7041;100850.3;;;;-69
2023/07/29 23:42:56;;;;;;;;;;;;;;;17.18;77.89551;100855.8;;;;-68
2023/07/29 23:47:55;;;;;;;;;;;;;;;17.18;77.82813;100857.6;;;;-68
2023/07/29 23:52:55;;;;;;;;;;;;;;;17.15;78.25098;100862.1;;;;-69
2023/07/29 23:57:55;;;;;;;;;;;;;;;17.16;78.86914;100862.3;;;;-68
2023/07/29 23:59:51;;;;;;;0.2;0;;;;;;;;;;;;;-69
